createdAt,value
2023-02-22T00:02:37.625Z,79.92
2023-02-22T00:05:45.219Z,79.89
2023-02-22T00:08:52.947Z,79.86
2023-02-22T00:11:56.488Z,79.93
2023-02-22T00:14:59.681Z,79.92
2023-02-22T00:18:03.827Z,80.05
2023-02-22T00:21:10.725Z,80.26
2023-02-22T00:24:23.309Z,80.38
2023-02-22T00:27:26.316Z,80.57
2023-02-22T00:30:32.043Z,80.67
2023-02-22T00:33:36.629Z,80.78
2023-02-22T00:36:44.485Z,80.86
2023-02-22T00:39:48.746Z,80.78
2023-02-22T00:42:52.617Z,80.75
2023-02-22T00:45:58.066Z,80.75
2023-02-22T00:49:01.269Z,80.81
2023-02-22T00:52:06.500Z,80.87
2023-02-22T00:55:16.156Z,80.82
2023-02-22T00:58:19.010Z,80.91
2023-02-22T01:01:24.170Z,80.98
2023-02-22T01:04:27.434Z,81.10
2023-02-22T01:07:30.474Z,81.20
2023-02-22T01:10:34.588Z,81.35
2023-02-22T01:13:37.454Z,81.34
2023-02-22T01:16:40.295Z,81.31
2023-02-22T01:19:43.825Z,81.44
2023-02-22T01:22:48.694Z,81.52
2023-02-22T01:25:51.433Z,81.43
2023-02-22T01:28:54.304Z,81.50
2023-02-22T01:31:59.528Z,81.30
2023-02-22T01:35:05.005Z,81.18
2023-02-22T01:38:10.247Z,81.18
2023-02-22T01:41:15.293Z,81.15
2023-02-22T01:44:28.150Z,81.11
2023-02-22T01:47:30.611Z,81.02
2023-02-22T01:50:39.316Z,80.94
2023-02-22T01:53:54.559Z,80.93
2023-02-22T01:57:08.486Z,80.98
2023-02-22T02:00:17.287Z,81.09
2023-02-22T02:03:28.069Z,80.98
2023-02-22T02:06:33.969Z,81.04
2023-02-22T02:09:40.608Z,81.18
2023-02-22T02:12:50.012Z,81.20
2023-02-22T02:15:55.280Z,81.38
2023-02-22T02:19:01.461Z,81.60
2023-02-22T02:22:25.989Z,81.67
2023-02-22T02:25:37.893Z,81.66
2023-02-22T02:28:51.735Z,81.73
2023-02-22T02:32:16.576Z,81.73
2023-02-22T02:35:40.165Z,81.80
2023-02-22T02:38:49.948Z,81.91
2023-02-22T02:41:56.605Z,82.11
2023-02-22T02:45:10.028Z,82.12
2023-02-22T02:48:16.804Z,82.03
2023-02-22T02:51:21.451Z,81.85
2023-02-22T02:54:26.942Z,81.76
2023-02-22T02:57:29.844Z,81.73
2023-02-22T03:00:43.042Z,81.82
2023-02-22T03:04:00.143Z,81.91
2023-02-22T03:07:07.085Z,81.94
2023-02-22T03:10:39.703Z,81.96
2023-02-22T03:14:07.144Z,81.78
2023-02-22T03:17:16.861Z,81.80
2023-02-22T03:20:31.965Z,81.91
2023-02-22T03:23:41.911Z,81.97
2023-02-22T03:27:18.175Z,81.92
2023-02-22T03:30:33.767Z,82.05
2023-02-22T03:33:42.758Z,82.28
2023-02-22T03:36:49.957Z,82.13
2023-02-22T03:40:01.945Z,82.17
2023-02-22T03:43:16.864Z,82.31
2023-02-22T03:46:22.257Z,82.44
2023-02-22T03:49:36.898Z,82.81
2023-02-22T03:52:41.866Z,82.58
2023-02-22T03:55:51.816Z,82.71
2023-02-22T03:58:55.831Z,82.71
2023-02-22T04:01:59.735Z,82.96
2023-02-22T04:05:03.094Z,83.32
2023-02-22T04:08:06.997Z,83.42
2023-02-22T04:11:11.222Z,83.58
2023-02-22T04:14:15.562Z,83.98
2023-02-22T04:17:19.589Z,84.07
2023-02-22T04:20:25.819Z,84.01
2023-02-22T04:23:29.462Z,84.13
2023-02-22T04:26:35.002Z,84.43
2023-02-22T04:29:38.536Z,84.24
2023-02-22T04:32:41.944Z,84.27
2023-02-22T04:35:46.226Z,84.31
2023-02-22T04:38:50.924Z,84.28
2023-02-22T04:41:56.159Z,84.04
2023-02-22T04:45:00.002Z,83.86
2023-02-22T04:48:04.979Z,84.03
2023-02-22T04:51:09.393Z,83.47
2023-02-22T04:54:17.589Z,83.56
2023-02-22T04:57:21.402Z,83.59
2023-02-22T05:00:28.893Z,83.84
2023-02-22T05:03:32.141Z,83.72
2023-02-22T05:06:37.062Z,83.87
2023-02-22T05:09:40.012Z,83.58
2023-02-22T05:12:45.649Z,83.58
2023-02-22T05:15:48.455Z,83.50
2023-02-22T05:18:52.213Z,83.47
2023-02-22T05:21:56.565Z,83.43
2023-02-22T05:24:59.635Z,83.41
2023-02-22T05:28:11.179Z,83.45
2023-02-22T05:31:16.276Z,83.49
2023-02-22T05:34:24.096Z,83.61
2023-02-22T05:37:28.918Z,83.49
2023-02-22T05:40:35.076Z,83.51
2023-02-22T05:43:40.045Z,83.56
2023-02-22T05:46:43.334Z,83.36
2023-02-22T05:49:55.356Z,83.35
2023-02-22T05:53:07.014Z,83.35
2023-02-22T05:56:15.961Z,83.06
2023-02-22T05:59:22.133Z,82.76
2023-02-22T06:02:25.745Z,82.38
2023-02-22T06:05:29.952Z,81.99
2023-02-22T06:08:37.204Z,81.73
2023-02-22T06:11:40.926Z,80.94
2023-02-22T06:14:46.247Z,78.96
2023-02-22T06:17:51.112Z,77.25
2023-02-22T06:20:55.021Z,77.06
2023-02-22T06:24:00.536Z,77.86
2023-02-22T06:27:05.995Z,78.28
2023-02-22T06:30:15.859Z,78.20
2023-02-22T06:33:21.090Z,77.12
2023-02-22T06:36:28.887Z,76.32
2023-02-22T06:39:34.384Z,75.29
2023-02-22T06:42:39.116Z,75.29
2023-02-22T06:45:44.062Z,75.69
2023-02-22T06:48:54.975Z,75.94
2023-02-22T06:52:01.319Z,76.17
2023-02-22T06:55:13.865Z,76.22
2023-02-22T06:58:19.204Z,75.71
2023-02-22T07:01:32.133Z,75.55
2023-02-22T07:04:37.083Z,75.26
2023-02-22T07:07:40.815Z,73.16
2023-02-22T07:10:45.294Z,69.83
2023-02-22T07:13:51.301Z,70.40
2023-02-22T07:16:55.181Z,69.71
2023-02-22T07:19:58.674Z,64.61
2023-02-22T07:23:05.929Z,58.29
2023-02-22T07:26:09.017Z,56.78
2023-02-22T07:29:15.125Z,57.90
2023-02-22T07:32:18.611Z,57.92
2023-02-22T07:35:25.862Z,60.66
2023-02-22T07:38:30.576Z,63.20
2023-02-22T07:41:40.409Z,65.08
2023-02-22T07:44:48.560Z,65.44
2023-02-22T07:47:52.956Z,67.33
2023-02-22T07:50:56.835Z,67.21
2023-02-22T07:54:01.686Z,67.98
2023-02-22T07:57:08.165Z,68.62
2023-02-22T08:00:19.057Z,68.02
2023-02-22T08:03:32.130Z,68.38
2023-02-22T08:06:37.065Z,68.09
2023-02-22T08:09:42.192Z,68.15
2023-02-22T08:12:58.417Z,67.96
2023-02-22T08:16:01.813Z,67.58
2023-02-22T08:19:04.810Z,67.28
2023-02-22T08:22:07.869Z,67.14
2023-02-22T08:25:12.610Z,67.27
2023-02-22T08:28:21.706Z,67.67
2023-02-22T08:31:25.628Z,67.69
2023-02-22T08:34:30.333Z,67.72
2023-02-22T08:37:33.669Z,67.63
2023-02-22T08:40:39.944Z,67.35
2023-02-22T08:43:45.293Z,67.46
2023-02-22T08:46:49.412Z,67.76
2023-02-22T08:49:52.471Z,67.30
2023-02-22T08:53:01.448Z,67.62
2023-02-22T08:56:07.244Z,68.05
2023-02-22T08:59:11.090Z,67.71
2023-02-22T09:02:20.525Z,67.77
2023-02-22T09:05:24.066Z,67.83
2023-02-22T09:08:27.992Z,67.52
2023-02-22T09:11:32.233Z,67.39
2023-02-22T09:14:35.183Z,67.67
2023-02-22T09:17:38.411Z,68.00
2023-02-22T09:20:42.117Z,67.72
2023-02-22T09:23:48.431Z,68.15
2023-02-22T09:27:03.084Z,68.18
2023-02-22T09:30:27.292Z,68.14
2023-02-22T09:33:32.096Z,67.76
2023-02-22T09:36:45.934Z,67.13
2023-02-22T09:39:51.458Z,67.09
2023-02-22T09:43:27.016Z,66.59
2023-02-22T09:46:35.457Z,66.69
2023-02-22T09:50:15.950Z,65.39
2023-02-22T09:53:41.951Z,65.78
2023-02-22T09:56:48.886Z,67.68
2023-02-22T10:00:02.094Z,67.92
2023-02-22T10:03:37.235Z,68.91
2023-02-22T10:06:54.307Z,68.68
2023-02-22T10:10:06.529Z,68.11
2023-02-22T10:13:29.003Z,68.24
2023-02-22T10:16:53.338Z,68.59
2023-02-22T10:20:27.010Z,68.89
2023-02-22T10:23:46.714Z,68.61
2023-02-22T10:26:51.282Z,69.17
2023-02-22T10:30:25.411Z,68.79
2023-02-22T10:34:03.268Z,68.39
2023-02-22T10:37:27.228Z,68.65
2023-02-22T10:40:34.675Z,68.50
2023-02-22T10:43:41.053Z,68.42
2023-02-22T10:46:48.213Z,68.03
2023-02-22T10:49:56.601Z,67.93
2023-02-22T10:53:06.906Z,68.10
2023-02-22T10:56:18.699Z,68.35
2023-02-22T10:59:39.490Z,67.77
2023-02-22T11:02:54.591Z,67.92
2023-02-22T11:06:23.036Z,68.15
2023-02-22T11:09:29.273Z,67.38
2023-02-22T11:12:40.666Z,66.70
2023-02-22T11:15:57.060Z,66.57
2023-02-22T11:19:14.397Z,66.58
2023-02-22T11:22:30.012Z,66.62
2023-02-22T11:25:38.516Z,66.97
2023-02-22T11:28:50.804Z,66.61
2023-02-22T11:31:55.639Z,66.41
2023-02-22T11:35:30.127Z,66.17
2023-02-22T11:38:39.204Z,66.23
2023-02-22T11:41:42.778Z,66.06
2023-02-22T11:44:47.118Z,65.93
2023-02-22T11:47:57.074Z,66.14
2023-02-22T11:51:14.569Z,66.30
2023-02-22T11:54:53.957Z,65.96
2023-02-22T11:58:27.987Z,65.49
2023-02-22T12:01:47.307Z,65.46
2023-02-22T12:05:19.192Z,65.93
2023-02-22T12:08:52.811Z,65.73
2023-02-22T12:12:25.274Z,65.50
2023-02-22T12:15:40.169Z,66.56
2023-02-22T12:18:46.988Z,66.40
2023-02-22T12:21:57.183Z,66.55
2023-02-22T12:25:09.606Z,66.86
2023-02-22T12:28:28.175Z,66.95
2023-02-22T12:31:38.472Z,67.07
2023-02-22T12:35:39.916Z,67.18
2023-02-22T12:38:50.333Z,67.30
2023-02-22T12:42:07.046Z,67.47
2023-02-22T12:45:25.088Z,67.39
2023-02-22T12:49:03.280Z,67.45
2023-02-22T12:52:33.965Z,67.71
2023-02-22T12:55:42.612Z,67.92
2023-02-22T12:59:03.664Z,68.24
2023-02-22T13:02:31.329Z,68.18
2023-02-22T13:05:39.945Z,68.63
2023-02-22T13:08:55.934Z,68.76
2023-02-22T13:12:13.963Z,69.56
2023-02-22T13:15:49.757Z,69.54
2023-02-22T13:19:14.336Z,69.76
2023-02-22T13:22:30.055Z,69.50
2023-02-22T13:25:50.979Z,69.52
2023-02-22T13:29:06.021Z,69.54
2023-02-22T13:32:40.787Z,69.54
2023-02-22T13:36:15.818Z,69.72
2023-02-22T13:39:46.969Z,69.71
2023-02-22T13:43:15.047Z,70.29
2023-02-22T13:46:47.010Z,70.14
2023-02-22T13:50:23.956Z,70.19
2023-02-22T13:53:37.139Z,70.56
2023-02-22T13:56:51.586Z,70.80
2023-02-22T14:00:43.079Z,70.88
2023-02-22T14:03:48.989Z,70.80
2023-02-22T14:07:10.813Z,70.91
2023-02-22T14:10:48.193Z,70.88
2023-02-22T14:13:53.803Z,71.17
2023-02-22T14:17:19.023Z,71.21
2023-02-22T14:20:40.858Z,70.96
2023-02-22T14:23:53.263Z,71.29
2023-02-22T14:27:05.162Z,71.43
2023-02-22T14:30:31.016Z,71.36
2023-02-22T14:34:07.001Z,71.66
2023-02-22T14:37:24.850Z,72.16
2023-02-22T14:40:44.892Z,72.19
2023-02-22T14:43:55.996Z,72.00
2023-02-22T14:47:05.977Z,72.01
2023-02-22T14:50:25.904Z,71.98
2023-02-22T14:53:45.265Z,72.21
2023-02-22T14:57:12.990Z,72.39
2023-02-22T15:00:50.124Z,72.72
2023-02-22T15:04:07.797Z,72.73
2023-02-22T15:07:30.909Z,72.68
2023-02-22T15:10:46.183Z,73.07
2023-02-22T15:13:54.266Z,73.92
2023-02-22T15:22:09.220Z,73.97
2023-02-22T15:25:26.439Z,73.90
2023-02-22T15:28:38.376Z,73.94
2023-02-22T15:31:48.244Z,74.20
2023-02-22T15:34:52.135Z,74.58
2023-02-22T15:38:11.012Z,75.02
2023-02-22T15:41:27.851Z,75.33
2023-02-22T15:44:42.991Z,75.30
2023-02-22T15:47:47.049Z,75.55
2023-02-22T15:51:28.061Z,75.98
2023-02-22T15:54:39.477Z,76.19
2023-02-22T15:57:43.431Z,76.69
2023-02-22T16:00:57.911Z,76.42
2023-02-22T16:04:05.969Z,76.53
2023-02-22T16:07:17.355Z,76.91
2023-02-22T16:10:28.992Z,77.10
2023-02-22T16:13:35.651Z,77.65
2023-02-22T16:16:45.028Z,77.46
2023-02-22T16:19:50.495Z,77.82
2023-02-22T16:23:03.882Z,78.22
2023-02-22T16:26:23.069Z,78.48
2023-02-22T16:29:28.997Z,78.47
2023-02-22T16:32:34.693Z,78.68
2023-02-22T16:35:52.484Z,78.59
2023-02-22T16:39:06.044Z,78.82
2023-02-22T16:42:24.945Z,78.78
2023-02-22T16:45:42.566Z,79.08
2023-02-22T16:49:03.527Z,79.23
2023-02-22T16:52:12.981Z,79.34
2023-02-22T16:55:22.952Z,79.49
2023-02-22T16:58:43.138Z,79.45
2023-02-22T17:01:58.863Z,80.05
2023-02-22T17:05:03.851Z,80.15
2023-02-22T17:08:22.886Z,80.59
2023-02-22T17:11:42.858Z,80.79
2023-02-22T17:14:54.988Z,81.15
2023-02-22T17:18:23.076Z,81.39
2023-02-22T17:21:27.895Z,82.06
2023-02-22T17:24:34.062Z,82.08
2023-02-22T17:27:46.282Z,82.37
2023-02-22T17:30:56.193Z,83.07
2023-02-22T17:34:15.957Z,82.93
2023-02-22T17:37:25.734Z,83.07
2023-02-22T17:40:36.900Z,83.36
2023-02-22T17:43:43.471Z,83.36
2023-02-22T17:46:53.174Z,83.59
2023-02-22T17:50:09.032Z,83.75
2023-02-22T17:53:25.013Z,83.90
2023-02-22T17:56:32.978Z,84.25
2023-02-22T17:59:45.908Z,84.87
2023-02-22T18:02:59.399Z,85.11
2023-02-22T18:06:03.461Z,85.19
2023-02-22T18:09:18.950Z,85.24
2023-02-22T18:12:22.654Z,85.46
2023-02-22T18:15:37.024Z,85.32
2023-02-22T18:18:46.956Z,85.43
2023-02-22T18:21:55.094Z,85.56
2023-02-22T18:25:13.828Z,85.53
2023-02-22T18:28:25.117Z,85.66
2023-02-22T18:31:37.009Z,85.64
2023-02-22T18:34:41.562Z,85.79
2023-02-22T18:37:52.167Z,85.90
2023-02-22T18:41:07.186Z,85.85
2023-02-22T18:44:27.236Z,86.03
2023-02-22T18:47:51.842Z,86.29
2023-02-22T18:51:06.053Z,86.46
2023-02-22T18:54:23.140Z,86.72
2023-02-22T18:57:37.976Z,86.84
2023-02-22T19:00:45.312Z,86.66
2023-02-22T19:03:50.239Z,86.01
2023-02-22T19:07:01.279Z,85.88
2023-02-22T19:10:12.158Z,85.52
2023-02-22T19:13:30.960Z,85.29
2023-02-22T19:16:52.871Z,84.45
2023-02-22T19:20:14.008Z,84.23
2023-02-22T19:23:39.868Z,84.02
2023-02-22T19:26:53.987Z,82.95
2023-02-22T19:30:17.345Z,83.21
2023-02-22T19:33:27.031Z,83.03
2023-02-22T19:36:36.038Z,82.38
2023-02-22T19:39:44.035Z,81.96
2023-02-22T19:43:09.865Z,80.88
2023-02-22T19:46:19.029Z,80.31
2023-02-22T19:49:34.947Z,79.42
2023-02-22T19:52:47.209Z,78.83
2023-02-22T19:55:55.949Z,77.52
2023-02-22T19:59:23.875Z,77.26
2023-02-22T20:02:42.992Z,76.93
2023-02-22T20:05:50.210Z,77.00
2023-02-22T20:08:59.640Z,75.14
2023-02-22T20:12:08.058Z,74.72
2023-02-22T20:15:19.879Z,74.68
2023-02-22T20:18:32.981Z,74.03
2023-02-22T20:21:42.964Z,74.34
2023-02-22T20:24:53.949Z,74.29
2023-02-22T20:28:06.926Z,74.26
2023-02-22T20:31:18.499Z,74.21
2023-02-22T20:34:33.634Z,74.26
2023-02-22T20:37:47.874Z,73.88
2023-02-22T20:41:14.103Z,73.93
2023-02-22T20:44:30.984Z,74.06
2023-02-22T20:47:41.923Z,73.86
2023-02-22T20:50:50.409Z,73.99
2023-02-22T20:54:02.573Z,73.33
2023-02-22T20:57:10.316Z,73.67
2023-02-22T21:00:19.213Z,73.32
2023-02-22T21:03:25.537Z,73.78
2023-02-22T21:06:50.165Z,74.24
2023-02-22T21:10:09.250Z,73.96
2023-02-22T21:13:26.123Z,74.00
2023-02-22T21:16:35.772Z,73.71
2023-02-22T21:19:41.101Z,74.16
2023-02-22T21:22:51.283Z,73.84
2023-02-22T21:25:58.253Z,73.87
2023-02-22T21:29:11.162Z,73.59
2023-02-22T21:32:15.483Z,73.75
2023-02-22T21:35:22.351Z,73.52
2023-02-22T21:38:27.121Z,73.56
2023-02-22T21:41:33.396Z,73.92
2023-02-22T21:44:41.735Z,73.43
2023-02-22T21:47:49.287Z,73.70
2023-02-22T21:50:54.526Z,73.63
2023-02-22T21:54:01.546Z,73.96
2023-02-22T21:57:10.146Z,74.06
2023-02-22T22:00:17.553Z,74.04
2023-02-22T22:03:24.921Z,73.83
2023-02-22T22:06:34.790Z,73.96
2023-02-22T22:09:42.902Z,74.01
2023-02-22T22:12:46.552Z,74.03
2023-02-22T22:15:50.442Z,73.81
2023-02-22T22:18:54.074Z,73.66
2023-02-22T22:21:58.483Z,74.09
2023-02-22T22:25:03.554Z,74.17
2023-02-22T22:28:08.964Z,74.00
2023-02-22T22:31:14.285Z,74.09
2023-02-22T22:34:19.503Z,74.17
2023-02-22T22:37:22.998Z,74.14
2023-02-22T22:40:31.820Z,73.94
2023-02-22T22:43:37.146Z,73.95
2023-02-22T22:46:41.026Z,74.24
2023-02-22T22:49:44.958Z,73.99
2023-02-22T22:52:49.186Z,74.30
2023-02-22T22:55:54.294Z,74.18
2023-02-22T22:58:59.154Z,74.19
2023-02-22T23:02:10.557Z,74.18
2023-02-22T23:05:19.019Z,74.29
2023-02-22T23:08:29.380Z,74.31
2023-02-22T23:11:35.542Z,74.26
2023-02-22T23:14:45.035Z,74.55
2023-02-22T23:17:48.801Z,74.16
2023-02-22T23:20:55.386Z,74.29
2023-02-22T23:23:58.764Z,74.01
2023-02-22T23:27:02.146Z,74.11
2023-02-22T23:30:07.279Z,73.66
2023-02-22T23:33:13.018Z,73.81
2023-02-22T23:36:20.113Z,74.17
2023-02-22T23:39:24.042Z,74.38
2023-02-22T23:42:28.128Z,74.07
2023-02-22T23:45:39.793Z,73.71
2023-02-22T23:48:48.137Z,74.13
2023-02-22T23:51:51.330Z,74.37
2023-02-22T23:54:54.367Z,73.91
2023-02-22T23:57:59.602Z,73.82
